createdAt,value
2022-12-27T00:02:12.994Z,98323.52
2022-12-27T00:12:20.174Z,98326.39
2022-12-27T00:22:27.656Z,98329.52
2022-12-27T00:32:35.040Z,98337.48
2022-12-27T00:42:42.177Z,98342.04
2022-12-27T00:52:48.428Z,98367.49
2022-12-27T01:13:01.524Z,98382.30
2022-12-27T01:23:08.708Z,98376.45
2022-12-27T01:33:15.901Z,98374.09
2022-12-27T01:43:22.141Z,98380.23
2022-12-27T01:53:34.850Z,98385.61
2022-12-27T02:03:46.156Z,98390.63
2022-12-27T02:13:53.401Z,98420.34
2022-12-27T02:24:30.213Z,98438.72
2022-12-27T02:34:41.739Z,98452.89
2022-12-27T02:45:05.568Z,98469.63
2022-12-27T02:55:16.948Z,98481.23
2022-12-27T03:05:21.770Z,98492.92
2022-12-27T03:15:53.299Z,98498.52
2022-12-27T03:26:02.937Z,98524.34
2022-12-27T03:36:25.907Z,98541.27
2022-12-27T03:46:35.488Z,98563.91
2022-12-27T03:56:41.790Z,98574.41
2022-12-27T04:06:49.817Z,98584.30
2022-12-27T04:17:14.567Z,98601.29
2022-12-27T04:27:39.107Z,98651.46
2022-12-27T04:37:45.068Z,98700.48
2022-12-27T04:48:09.887Z,98725.83
2022-12-27T04:58:16.973Z,98748.36
2022-12-27T05:08:42.841Z,98744.29
2022-12-27T05:18:50.116Z,98772.31
2022-12-27T05:28:59.660Z,98780.30
2022-12-27T05:39:07.099Z,98811.42
2022-12-27T05:49:14.079Z,98825.83
2022-12-27T05:59:21.528Z,98837.43
2022-12-27T06:09:28.751Z,98855.14
2022-12-27T06:19:36.495Z,98868.95
2022-12-27T06:29:42.216Z,98891.63
2022-12-27T06:39:49.594Z,98915.04
2022-12-27T06:49:56.264Z,98938.36
2022-12-27T07:00:03.760Z,98947.66
2022-12-27T07:10:12.034Z,98955.90
2022-12-27T07:20:18.410Z,98974.29
2022-12-27T07:30:24.267Z,99000.23
2022-12-27T07:40:31.504Z,99031.42
2022-12-27T07:50:38.818Z,99060.73
2022-12-27T08:00:46.111Z,99081.73
2022-12-27T08:10:53.416Z,99089.49
2022-12-27T08:20:59.696Z,99099.75
2022-12-27T08:31:09.328Z,99109.67
2022-12-27T08:41:21.027Z,99120.52
2022-12-27T08:51:35.850Z,99148.08
2022-12-27T09:01:47.956Z,99167.98
2022-12-27T09:11:55.261Z,99175.75
2022-12-27T09:22:03.737Z,99167.91
2022-12-27T09:32:10.943Z,99178.09
2022-12-27T09:43:01.996Z,99180.21
2022-12-27T09:52:52.842Z,99175.89
2022-12-27T10:03:05.232Z,99172.49
2022-12-27T10:13:18.211Z,99165.41
2022-12-27T10:23:25.735Z,99160.52
2022-12-27T10:33:35.543Z,99169.70
2022-12-27T10:43:45.660Z,99183.09
2022-12-27T10:54:02.362Z,99179.36
2022-12-27T11:04:19.810Z,99170.27
2022-12-27T11:14:28.250Z,99171.78
2022-12-27T11:24:35.467Z,99168.45
2022-12-27T11:34:47.170Z,99168.90
2022-12-27T11:44:54.215Z,99165.20
2022-12-27T11:55:14.552Z,99172.03
2022-12-27T12:05:46.845Z,99174.85
2022-12-27T12:16:28.734Z,99174.02
2022-12-27T12:26:38.407Z,99169.88
2022-12-27T12:36:52.715Z,99171.77
2022-12-27T12:46:58.515Z,99184.36
2022-12-27T12:57:10.841Z,99197.38
2022-12-27T13:07:26.010Z,99208.92
2022-12-27T13:17:37.360Z,99213.99
2022-12-27T13:27:43.215Z,99205.89
2022-12-27T13:37:54.085Z,99210.45
2022-12-27T13:48:13.951Z,99215.14
2022-12-27T13:58:34.007Z,99222.84
2022-12-27T14:09:18.831Z,99231.43
2022-12-27T14:19:40.482Z,99248.21
2022-12-27T14:30:21.217Z,99245.95
2022-12-27T14:41:00.114Z,99262.98
2022-12-27T14:51:59.248Z,99267.98
2022-12-27T15:02:02.036Z,99280.25
2022-12-27T15:12:10.458Z,99290.88
2022-12-27T15:22:19.043Z,99292.57
2022-12-27T15:32:27.864Z,99291.98
2022-12-27T15:42:43.324Z,99299.23
2022-12-27T15:53:12.841Z,99301.98
2022-12-27T16:03:31.878Z,99307.04
2022-12-27T16:13:51.397Z,99304.13
2022-12-27T16:24:01.171Z,99311.58
2022-12-27T16:34:11.678Z,99313.02
2022-12-27T16:44:26.896Z,99325.86
2022-12-27T16:54:32.709Z,99340.84
2022-12-27T17:04:59.307Z,99344.03
2022-12-27T17:15:13.719Z,99344.18
2022-12-27T17:25:22.889Z,99345.54
2022-12-27T17:35:31.972Z,99351.75
2022-12-27T17:45:44.045Z,99362.89
2022-12-27T17:56:17.941Z,99369.58
2022-12-27T18:06:25.448Z,99373.55
2022-12-27T18:16:33.665Z,99390.09
2022-12-27T18:26:42.507Z,99399.91
2022-12-27T18:36:53.072Z,99408.58
2022-12-27T18:47:01.703Z,99416.95
2022-12-27T18:57:13.372Z,99420.06
2022-12-27T19:07:20.892Z,99412.68
2022-12-27T19:17:31.457Z,99418.79
2022-12-27T19:27:38.698Z,99424.63
2022-12-27T19:37:46.161Z,99431.90
2022-12-27T19:47:55.771Z,99429.45
2022-12-27T19:58:03.403Z,99437.27
2022-12-27T20:08:16.333Z,99441.52
2022-12-27T20:18:25.119Z,99447.13
2022-12-27T20:28:31.181Z,99455.63
2022-12-27T20:38:39.279Z,99457.51
2022-12-27T20:48:48.294Z,99464.63
2022-12-27T20:58:55.675Z,99472.99
2022-12-27T21:09:03.259Z,99474.11
2022-12-27T21:19:10.904Z,99476.91
2022-12-27T21:29:19.499Z,99473.92
2022-12-27T21:39:26.738Z,99468.75
2022-12-27T21:49:35.173Z,99476.52
2022-12-27T21:59:41.379Z,99467.84
2022-12-27T22:09:48.670Z,99467.30
2022-12-27T22:19:55.787Z,99460.16
2022-12-27T22:30:03.715Z,99454.88
2022-12-27T22:40:30.974Z,99460.79
2022-12-27T22:50:39.624Z,99474.86
2022-12-27T23:00:46.764Z,99465.31
2022-12-27T23:10:53.947Z,99462.46
2022-12-27T23:21:21.863Z,99462.70
2022-12-27T23:31:29.520Z,99453.46
2022-12-27T23:41:36.055Z,99438.27
